Cedar Knolls, New Jersey
Current Conditions -  °F | °C
As of 10:35 PM on Saturday 22 Nov 2014 (Local Time) from KMMU Reporting Station
NA  
Wind Chill: 41°   Ceiling: NA
Heat Index: 41°   Visibility: 10mi
Dew Point: 19°   Wind: 3mph
Humidity: 42%   Direction: 220°SW
Pressure: 30.2"   Gusts: NA
Location:  40.82°N, 74.45°W
Report Text: KMMU 230335Z AUTO 22003KT 10SM 05/M07 A3020 RMK AO2
Loading
Personal Weather Stations






























Interactive Weather Map New forecast layout! Learn more

10-Day Weather Forecast

Advertisements
Track Severe Weather on mobile